createdAt,value
2018-07-25T00:00:45.836Z,22.10
2018-07-25T00:03:20.515Z,22.10
2018-07-25T00:05:54.372Z,22.00
2018-07-25T00:08:28.058Z,22.00
2018-07-25T00:11:01.967Z,22.00
2018-07-25T00:13:35.774Z,21.90
2018-07-25T00:16:10.262Z,21.80
2018-07-25T00:18:44.851Z,21.80
2018-07-25T00:21:19.518Z,21.70
2018-07-25T00:23:53.262Z,21.70
2018-07-25T00:26:27.082Z,21.70
2018-07-25T00:29:01.732Z,21.60
2018-07-25T00:31:37.080Z,21.50
2018-07-25T00:34:10.719Z,21.50
2018-07-25T00:36:45.380Z,21.50
2018-07-25T00:39:19.202Z,21.50
2018-07-25T00:41:53.025Z,21.50
2018-07-25T00:44:26.984Z,21.40
2018-07-25T00:47:00.819Z,21.30
2018-07-25T00:49:34.540Z,21.30
2018-07-25T00:52:08.351Z,21.30
2018-07-25T00:54:42.245Z,21.30
2018-07-25T00:57:16.867Z,21.30
2018-07-25T00:59:50.859Z,21.30
2018-07-25T01:02:24.786Z,21.30
2018-07-25T01:04:59.591Z,21.20
2018-07-25T01:07:33.549Z,21.20
2018-07-25T01:10:08.011Z,21.20
2018-07-25T01:12:41.871Z,21.20
2018-07-25T01:15:16.455Z,21.20
2018-07-25T01:17:50.322Z,21.20
2018-07-25T01:20:24.774Z,21.10
2018-07-25T01:22:58.651Z,21.10
2018-07-25T01:25:33.227Z,21.10
2018-07-25T01:28:07.044Z,21.10
2018-07-25T01:30:42.392Z,21.00
2018-07-25T01:33:16.879Z,21.00
2018-07-25T01:35:50.771Z,21.00
2018-07-25T01:38:24.679Z,21.00
2018-07-25T01:40:59.255Z,20.80
2018-07-25T01:43:33.835Z,20.80
2018-07-25T01:46:07.743Z,20.80
2018-07-25T01:48:41.370Z,20.80
2018-07-25T01:51:15.288Z,20.80
2018-07-25T01:53:49.063Z,20.80
2018-07-25T01:56:23.504Z,20.70
2018-07-25T01:58:57.331Z,20.70
2018-07-25T02:01:32.101Z,20.70
2018-07-25T02:04:05.703Z,20.60
2018-07-25T02:06:39.604Z,20.70
2018-07-25T02:09:13.408Z,20.70
2018-07-25T02:11:47.859Z,20.70
2018-07-25T02:14:21.707Z,20.60
2018-07-25T02:16:55.367Z,20.60
2018-07-25T02:19:30.045Z,20.50
2018-07-25T02:22:03.939Z,20.50
2018-07-25T02:24:37.824Z,20.50
2018-07-25T02:27:11.627Z,20.50
2018-07-25T02:29:45.290Z,20.50
2018-07-25T02:32:18.949Z,20.50
2018-07-25T02:34:53.578Z,20.60
2018-07-25T02:37:27.436Z,20.50
2018-07-25T02:40:01.203Z,20.60
2018-07-25T02:42:35.029Z,20.60
2018-07-25T02:45:08.847Z,20.50
2018-07-25T02:47:42.507Z,20.50
2018-07-25T02:50:16.465Z,20.40
2018-07-25T02:52:50.220Z,20.30
2018-07-25T02:55:24.777Z,20.20
2018-07-25T02:57:59.358Z,20.10
2018-07-25T03:00:33.141Z,20.10
2018-07-25T03:03:07.684Z,20.10
2018-07-25T03:05:42.291Z,20.10
2018-07-25T03:08:16.987Z,20.10
2018-07-25T03:10:50.727Z,20.10
2018-07-25T03:13:24.459Z,20.10
2018-07-25T03:15:58.983Z,20.10
2018-07-25T03:18:33.640Z,20.10
2018-07-25T03:21:08.101Z,20.10
2018-07-25T03:23:41.944Z,20.10
2018-07-25T03:26:15.589Z,20.00
2018-07-25T03:28:49.384Z,20.10
2018-07-25T03:31:23.283Z,20.00
2018-07-25T03:33:57.104Z,20.00
2018-07-25T03:36:30.849Z,19.90
2018-07-25T03:39:04.591Z,19.90
2018-07-25T03:41:39.178Z,19.90
2018-07-25T03:44:13.820Z,19.90
2018-07-25T03:46:47.599Z,19.90
2018-07-25T03:49:22.782Z,20.00
2018-07-25T03:51:57.251Z,20.00
2018-07-25T03:54:31.131Z,20.00
2018-07-25T03:57:04.796Z,20.10
2018-07-25T03:59:38.561Z,20.10
2018-07-25T04:02:12.222Z,20.10
2018-07-25T04:04:45.955Z,20.00
2018-07-25T04:07:19.730Z,20.00
2018-07-25T04:09:53.482Z,20.00
2018-07-25T04:12:28.014Z,20.00
2018-07-25T04:15:01.896Z,19.90
2018-07-25T04:17:35.745Z,20.00
2018-07-25T04:20:09.363Z,19.90
2018-07-25T04:22:43.180Z,20.00
2018-07-25T04:25:17.807Z,20.20
2018-07-25T04:27:51.787Z,20.20
2018-07-25T04:30:26.006Z,20.20
2018-07-25T04:32:59.721Z,20.30
2018-07-25T04:35:33.613Z,20.30
2018-07-25T04:38:08.195Z,20.50
2018-07-25T04:40:42.113Z,20.40
2018-07-25T04:43:16.032Z,20.50
2018-07-25T04:45:49.979Z,20.60
2018-07-25T04:48:24.606Z,20.60
2018-07-25T04:50:59.234Z,20.50
2018-07-25T04:53:32.880Z,20.50
2018-07-25T04:56:07.495Z,20.60
2018-07-25T04:58:41.795Z,20.60
2018-07-25T05:01:15.660Z,20.60
2018-07-25T05:03:49.500Z,20.70
2018-07-25T05:06:23.989Z,21.40
2018-07-25T05:09:02.108Z,21.40
2018-07-25T05:11:35.899Z,22.20
2018-07-25T05:14:09.673Z,23.00
2018-07-25T05:16:44.314Z,22.90
2018-07-25T05:19:18.961Z,22.60
2018-07-25T05:21:53.587Z,22.40
2018-07-25T05:24:28.255Z,22.40
2018-07-25T05:27:02.871Z,22.30
2018-07-25T05:29:37.444Z,22.20
2018-07-25T05:32:11.343Z,22.20
2018-07-25T05:34:45.188Z,22.10
2018-07-25T05:37:19.207Z,22.10
2018-07-25T05:39:54.511Z,22.10
2018-07-25T05:42:28.407Z,22.10
2018-07-25T05:45:02.992Z,22.10
2018-07-25T05:47:37.384Z,22.20
2018-07-25T05:50:11.988Z,22.20
2018-07-25T05:52:46.646Z,22.30
2018-07-25T05:55:20.579Z,22.30
2018-07-25T05:57:54.306Z,22.40
2018-07-25T06:00:28.071Z,22.30
2018-07-25T06:03:02.031Z,22.20
2018-07-25T06:05:36.427Z,22.20
2018-07-25T06:08:10.566Z,22.40
2018-07-25T06:10:45.154Z,22.50
2018-07-25T06:13:18.967Z,22.50
2018-07-25T06:15:52.700Z,22.70
2018-07-25T06:18:26.476Z,22.60
2018-07-25T06:21:01.032Z,22.40
2018-07-25T06:23:34.776Z,22.40
2018-07-25T06:26:08.598Z,22.60
2018-07-25T06:28:43.359Z,23.00
2018-07-25T06:31:17.967Z,23.20
2018-07-25T06:33:52.360Z,23.40
2018-07-25T06:36:26.031Z,23.30
2018-07-25T06:39:00.592Z,23.50
2018-07-25T06:41:34.568Z,23.50
2018-07-25T06:44:08.213Z,23.60
2018-07-25T06:46:42.083Z,23.30
2018-07-25T06:49:15.859Z,23.10
2018-07-25T06:51:49.706Z,23.00
2018-07-25T06:54:23.543Z,23.30
2018-07-25T06:56:58.088Z,23.80
2018-07-25T06:59:34.997Z,23.80
2018-07-25T07:02:08.749Z,24.10
2018-07-25T07:04:42.503Z,24.30
2018-07-25T07:07:16.265Z,24.40
2018-07-25T07:09:50.073Z,24.40
2018-07-25T07:12:24.100Z,24.30
2018-07-25T07:14:57.859Z,24.40
2018-07-25T07:17:31.744Z,24.60
2018-07-25T07:20:05.447Z,24.80
2018-07-25T07:22:39.197Z,24.90
2018-07-25T07:25:13.005Z,25.00
2018-07-25T07:27:46.598Z,25.00
2018-07-25T07:30:20.394Z,24.80
2018-07-25T07:32:54.208Z,24.70
2018-07-25T07:35:28.029Z,24.80
2018-07-25T07:38:02.579Z,25.10
2018-07-25T07:40:36.269Z,25.10
2018-07-25T07:43:09.963Z,25.20
2018-07-25T07:45:43.750Z,25.20
2018-07-25T07:48:18.375Z,25.60
2018-07-25T07:50:52.251Z,25.60
2018-07-25T07:53:26.106Z,25.90
2018-07-25T07:56:00.744Z,26.10
2018-07-25T07:58:34.606Z,26.10
2018-07-25T08:01:09.144Z,26.20
2018-07-25T08:03:42.860Z,26.20
2018-07-25T08:06:17.389Z,26.60
2018-07-25T08:08:52.115Z,26.70
2018-07-25T08:11:26.620Z,26.80
2018-07-25T08:14:00.406Z,26.80
2018-07-25T08:16:34.155Z,26.90
2018-07-25T08:19:07.987Z,27.10
2018-07-25T08:21:41.755Z,27.20
2018-07-25T08:24:15.587Z,27.40
2018-07-25T08:26:50.171Z,28.70
2018-07-25T08:29:24.767Z,28.60
2018-07-25T08:31:58.688Z,29.70
2018-07-25T08:34:32.535Z,31.00
2018-07-25T08:37:06.305Z,31.80
2018-07-25T08:39:40.054Z,32.60
2018-07-25T08:42:13.974Z,33.50
2018-07-25T08:44:48.421Z,34.20
2018-07-25T08:47:22.242Z,34.20
2018-07-25T08:49:55.883Z,34.50
2018-07-25T08:52:29.768Z,34.40
2018-07-25T08:55:03.556Z,34.90
2018-07-25T08:57:37.575Z,35.10
2018-07-25T09:00:11.337Z,35.60
2018-07-25T09:02:45.020Z,35.10
2018-07-25T09:05:18.760Z,34.00
2018-07-25T09:07:52.462Z,34.10
2018-07-25T09:10:26.292Z,34.80
2018-07-25T09:13:00.153Z,35.20
2018-07-25T09:15:33.794Z,35.40
2018-07-25T09:18:07.830Z,34.60
2018-07-25T09:20:41.431Z,34.40
2018-07-25T09:23:15.289Z,34.40
2018-07-25T09:25:49.050Z,34.50
2018-07-25T09:28:22.650Z,34.30
2018-07-25T09:30:56.452Z,34.40
2018-07-25T09:33:30.251Z,34.70
2018-07-25T09:36:04.066Z,35.70
2018-07-25T09:38:37.734Z,36.50
2018-07-25T09:41:11.400Z,36.90
2018-07-25T09:43:45.319Z,37.20
2018-07-25T09:46:19.915Z,37.60
2018-07-25T09:48:53.714Z,37.60
2018-07-25T09:51:27.523Z,37.00
2018-07-25T09:54:01.296Z,36.00
2018-07-25T09:56:35.108Z,36.40
2018-07-25T09:59:08.941Z,36.90
2018-07-25T10:01:42.751Z,37.40
2018-07-25T10:04:16.782Z,37.20
2018-07-25T10:06:50.690Z,37.30
2018-07-25T10:09:24.468Z,36.40
2018-07-25T10:11:59.006Z,36.90
2018-07-25T10:14:33.601Z,36.60
2018-07-25T10:17:07.402Z,36.50
2018-07-25T10:19:41.272Z,37.10
2018-07-25T10:22:15.820Z,37.40
2018-07-25T10:24:49.620Z,37.40
2018-07-25T10:27:23.591Z,37.40
2018-07-25T10:29:57.352Z,37.40
2018-07-25T10:32:31.075Z,37.20
2018-07-25T10:35:05.029Z,36.70
2018-07-25T10:37:39.604Z,36.70
2018-07-25T10:40:13.420Z,36.70
2018-07-25T10:42:47.271Z,36.90
2018-07-25T10:45:21.762Z,36.90
2018-07-25T10:47:55.537Z,36.90
2018-07-25T10:50:29.251Z,37.10
2018-07-25T10:53:03.880Z,37.10
2018-07-25T10:55:37.706Z,37.10
2018-07-25T10:58:12.268Z,36.60
2018-07-25T11:00:46.936Z,36.50
2018-07-25T11:03:21.524Z,37.00
2018-07-25T11:05:56.087Z,37.10
2018-07-25T11:08:29.801Z,37.20
2018-07-25T11:11:03.575Z,37.00
2018-07-25T11:13:38.225Z,36.20
2018-07-25T11:16:11.990Z,36.20
2018-07-25T11:18:45.777Z,36.50
2018-07-25T11:21:20.340Z,36.80
2018-07-25T11:23:54.030Z,36.80
2018-07-25T11:26:27.656Z,37.20
2018-07-25T11:29:01.499Z,37.50
2018-07-25T11:31:35.151Z,36.60
2018-07-25T11:34:08.783Z,36.80
2018-07-25T11:36:42.511Z,36.30
2018-07-25T11:39:17.219Z,35.70
2018-07-25T11:41:50.907Z,35.60
2018-07-25T11:44:24.744Z,35.70
2018-07-25T11:46:59.383Z,35.30
2018-07-25T11:49:33.182Z,35.30
2018-07-25T11:52:06.912Z,35.10
2018-07-25T11:54:40.965Z,34.70
2018-07-25T11:57:14.540Z,34.70
2018-07-25T11:59:48.393Z,34.40
2018-07-25T12:02:22.172Z,34.20
2018-07-25T12:04:56.093Z,34.40
2018-07-25T12:07:30.717Z,34.70
2018-07-25T12:10:04.608Z,34.70
2018-07-25T12:12:38.309Z,34.70
2018-07-25T12:15:12.169Z,34.70
2018-07-25T12:17:45.905Z,34.40
2018-07-25T12:20:20.581Z,33.90
2018-07-25T12:22:54.363Z,33.90
2018-07-25T12:25:29.000Z,33.60
2018-07-25T12:28:02.797Z,33.60
2018-07-25T12:30:36.559Z,33.70
2018-07-25T12:33:10.360Z,33.50
2018-07-25T12:35:45.695Z,33.80
2018-07-25T12:38:19.523Z,34.00
2018-07-25T12:40:53.346Z,34.00
2018-07-25T12:43:27.029Z,34.00
2018-07-25T12:46:01.579Z,34.00
2018-07-25T12:48:35.325Z,34.00
2018-07-25T12:51:09.495Z,34.20
2018-07-25T12:53:43.514Z,34.10
2018-07-25T12:56:17.220Z,34.00
2018-07-25T12:58:50.974Z,34.00
2018-07-25T13:01:24.725Z,34.00
2018-07-25T13:03:58.538Z,34.00
2018-07-25T13:06:32.248Z,33.90
2018-07-25T13:09:06.917Z,33.40
2018-07-25T13:11:40.837Z,33.30
2018-07-25T13:14:15.276Z,33.20
2018-07-25T13:16:49.186Z,33.20
2018-07-25T13:19:24.244Z,33.50
2018-07-25T13:21:58.145Z,33.50
2018-07-25T13:24:31.899Z,33.70
2018-07-25T13:27:05.591Z,34.00
2018-07-25T13:29:40.105Z,34.20
2018-07-25T13:32:13.923Z,34.20
2018-07-25T13:34:48.528Z,34.30
2018-07-25T13:37:23.064Z,34.50
2018-07-25T13:39:56.816Z,34.50
2018-07-25T13:42:30.664Z,34.50
2018-07-25T13:45:04.544Z,34.60
2018-07-25T13:47:39.171Z,34.40
2018-07-25T13:50:12.903Z,34.40
2018-07-25T13:52:46.782Z,34.30
2018-07-25T13:55:21.387Z,34.30
2018-07-25T13:57:56.547Z,34.50
2018-07-25T14:00:30.393Z,34.50
2018-07-25T14:03:05.035Z,34.80
2018-07-25T14:05:38.856Z,34.80
2018-07-25T14:08:13.647Z,34.80
2018-07-25T14:10:47.359Z,34.80
2018-07-25T14:13:21.176Z,34.60
2018-07-25T14:15:54.941Z,34.30
2018-07-25T14:18:28.817Z,34.10
2018-07-25T14:21:02.548Z,34.00
2018-07-25T14:23:36.545Z,34.00
2018-07-25T14:26:10.466Z,34.00
2018-07-25T14:28:44.974Z,33.90
2018-07-25T14:31:18.739Z,33.90
2018-07-25T14:33:53.444Z,33.90
2018-07-25T14:36:27.188Z,33.80
2018-07-25T14:39:01.831Z,33.60
2018-07-25T14:41:35.664Z,33.60
2018-07-25T14:44:10.383Z,33.30
2018-07-25T14:46:44.208Z,33.30
2018-07-25T14:49:18.124Z,33.30
2018-07-25T14:51:52.030Z,33.40
2018-07-25T14:54:27.120Z,33.30
2018-07-25T14:57:01.208Z,33.30
2018-07-25T14:59:35.958Z,33.20
2018-07-25T15:02:09.704Z,33.20
2018-07-25T15:04:44.269Z,33.10
2018-07-25T15:07:18.709Z,33.10
2018-07-25T15:09:52.481Z,33.10
2018-07-25T15:12:26.989Z,33.00
2018-07-25T15:15:00.786Z,32.90
2018-07-25T15:17:35.467Z,32.90
2018-07-25T15:20:10.020Z,32.90
2018-07-25T15:22:44.712Z,32.80
2018-07-25T15:25:18.475Z,32.80
2018-07-25T15:27:53.102Z,32.60
2018-07-25T15:30:26.725Z,32.60
2018-07-25T15:33:00.631Z,32.70
2018-07-25T15:35:34.585Z,32.70
2018-07-25T15:38:08.449Z,32.60
2018-07-25T15:40:43.143Z,32.60
2018-07-25T15:43:16.936Z,32.50
2018-07-25T15:45:50.790Z,32.60
2018-07-25T15:48:25.467Z,32.60
2018-07-25T15:51:00.138Z,32.60
2018-07-25T15:53:34.072Z,32.60
2018-07-25T15:56:07.930Z,32.60
2018-07-25T15:58:41.728Z,32.70
2018-07-25T16:01:16.244Z,32.80
2018-07-25T16:03:49.986Z,32.80
2018-07-25T16:06:23.944Z,32.70
2018-07-25T16:08:57.840Z,32.60
2018-07-25T16:11:31.713Z,32.60
2018-07-25T16:14:06.260Z,32.70
2018-07-25T16:16:40.040Z,32.70
2018-07-25T16:19:14.547Z,32.60
2018-07-25T16:21:49.181Z,32.60
2018-07-25T16:24:23.013Z,32.60
2018-07-25T16:26:56.743Z,32.70
2018-07-25T16:29:30.700Z,32.80
2018-07-25T16:32:04.512Z,32.90
2018-07-25T16:34:38.346Z,32.90
2018-07-25T16:37:13.046Z,32.80
2018-07-25T16:39:46.736Z,32.90
2018-07-25T16:42:20.713Z,33.00
2018-07-25T16:44:54.599Z,33.00
2018-07-25T16:47:28.440Z,32.80
2018-07-25T16:50:02.284Z,32.90
2018-07-25T16:52:36.067Z,32.90
2018-07-25T16:55:10.547Z,32.90
2018-07-25T16:57:44.674Z,32.80
2018-07-25T17:00:18.495Z,32.90
2018-07-25T17:02:52.284Z,32.90
2018-07-25T17:05:26.136Z,32.80
2018-07-25T17:08:00.723Z,32.80
2018-07-25T17:10:34.452Z,32.80
2018-07-25T17:13:08.260Z,32.80
2018-07-25T17:15:42.167Z,32.70
2018-07-25T17:18:16.192Z,32.70
2018-07-25T17:20:50.784Z,32.70
2018-07-25T17:23:24.578Z,32.70
2018-07-25T17:25:58.335Z,32.70
2018-07-25T17:28:33.660Z,32.60
2018-07-25T17:31:09.016Z,32.50
2018-07-25T17:33:42.778Z,32.50
2018-07-25T17:36:16.496Z,32.50
2018-07-25T17:38:50.367Z,32.50
2018-07-25T17:41:24.152Z,32.20
2018-07-25T17:43:58.019Z,31.60
2018-07-25T17:46:31.704Z,31.30
2018-07-25T17:49:05.568Z,31.10
2018-07-25T17:51:39.428Z,31.10
2018-07-25T17:54:13.301Z,31.20
2018-07-25T17:56:47.239Z,31.10
2018-07-25T17:59:20.870Z,31.10
2018-07-25T18:01:54.684Z,31.00
2018-07-25T18:04:29.281Z,30.50
2018-07-25T18:07:03.038Z,30.20
2018-07-25T18:09:36.935Z,30.00
2018-07-25T18:12:12.184Z,29.80
2018-07-25T18:14:45.968Z,29.90
2018-07-25T18:17:19.816Z,29.80
2018-07-25T18:19:53.559Z,29.80
2018-07-25T18:22:27.475Z,29.80
2018-07-25T18:25:01.200Z,29.60
2018-07-25T18:27:35.763Z,29.70
2018-07-25T18:30:09.559Z,29.70
2018-07-25T18:32:43.439Z,29.80
2018-07-25T18:35:17.359Z,30.00
2018-07-25T18:37:51.939Z,30.10
2018-07-25T18:40:25.740Z,30.10
2018-07-25T18:42:59.624Z,30.10
2018-07-25T18:45:33.527Z,30.20
2018-07-25T18:48:07.306Z,30.10
2018-07-25T18:50:41.138Z,30.10
2018-07-25T18:53:16.522Z,29.90
2018-07-25T18:55:50.485Z,29.90
2018-07-25T18:58:24.375Z,29.90
2018-07-25T19:00:58.113Z,29.90
2018-07-25T19:03:33.425Z,29.70
2018-07-25T19:06:07.247Z,29.70
2018-07-25T19:08:41.004Z,29.60
2018-07-25T19:11:14.690Z,29.50
2018-07-25T19:13:48.445Z,29.40
2018-07-25T19:16:22.195Z,29.10
2018-07-25T19:18:55.984Z,29.00
2018-07-25T19:21:29.704Z,28.90
2018-07-25T19:24:03.612Z,28.90
2018-07-25T19:26:38.139Z,28.70
2018-07-25T19:29:12.645Z,28.70
2018-07-25T19:31:46.765Z,28.60
2018-07-25T19:34:21.375Z,28.50
2018-07-25T19:36:55.020Z,28.50
2018-07-25T19:39:28.744Z,28.40
2018-07-25T19:42:02.572Z,28.40
2018-07-25T19:44:36.291Z,28.30
2018-07-25T19:47:10.847Z,28.20
2018-07-25T19:49:45.488Z,28.10
2018-07-25T19:52:19.364Z,28.10
2018-07-25T19:54:53.987Z,27.90
2018-07-25T19:57:27.700Z,27.90
2018-07-25T20:00:02.252Z,27.80
2018-07-25T20:02:36.608Z,27.70
2018-07-25T20:05:10.359Z,27.70
2018-07-25T20:07:44.141Z,27.60
2018-07-25T20:10:18.060Z,27.50
2018-07-25T20:12:51.839Z,27.50
2018-07-25T20:18:19.796Z,27.30
2018-07-25T20:20:53.524Z,27.30
2018-07-25T20:23:27.291Z,27.30
2018-07-25T20:26:01.230Z,27.20
2018-07-25T20:28:35.037Z,27.20
2018-07-25T20:31:10.340Z,27.10
2018-07-25T20:33:44.168Z,27.10
2018-07-25T20:36:17.984Z,27.20
2018-07-25T20:38:51.783Z,27.20
2018-07-25T20:41:25.535Z,27.10
2018-07-25T20:43:59.505Z,27.20
2018-07-25T20:46:33.267Z,27.10
2018-07-25T20:49:07.872Z,26.90
2018-07-25T20:51:42.406Z,26.80
2018-07-25T20:54:16.278Z,26.80
2018-07-25T20:56:50.315Z,26.90
2018-07-25T20:59:24.017Z,26.80
2018-07-25T21:01:58.641Z,26.70
2018-07-25T21:04:33.888Z,26.60
2018-07-25T21:07:08.529Z,26.70
2018-07-25T21:09:43.148Z,26.60
2018-07-25T21:12:18.279Z,26.50
2018-07-25T21:14:52.100Z,26.50
2018-07-25T21:17:26.924Z,26.50
2018-07-25T21:20:01.501Z,26.40
2018-07-25T21:22:35.337Z,26.40
2018-07-25T21:25:09.130Z,26.50
2018-07-25T21:27:42.912Z,26.50
2018-07-25T21:30:17.469Z,26.60
2018-07-25T21:32:51.339Z,26.60
2018-07-25T21:35:25.909Z,26.60
2018-07-25T21:37:59.691Z,26.60
2018-07-25T21:40:34.368Z,26.40
2018-07-25T21:43:08.143Z,26.40
2018-07-25T21:45:42.792Z,26.20
2018-07-25T21:48:17.311Z,26.10
2018-07-25T21:50:51.162Z,26.10
2018-07-25T21:53:26.531Z,26.10
2018-07-25T21:56:01.178Z,26.10
2018-07-25T21:58:35.768Z,26.10
2018-07-25T22:01:09.555Z,26.00
2018-07-25T22:03:44.245Z,26.00
2018-07-25T22:06:18.663Z,26.00
2018-07-25T22:08:52.485Z,25.90
2018-07-25T22:11:26.345Z,25.90
2018-07-25T22:14:00.064Z,25.90
2018-07-25T22:16:33.766Z,25.70
2018-07-25T22:19:08.396Z,25.50
2018-07-25T22:21:42.146Z,25.50
2018-07-25T22:24:16.727Z,25.40
2018-07-25T22:26:50.516Z,25.40
2018-07-25T22:29:25.171Z,25.30
2018-07-25T22:31:58.949Z,25.30
2018-07-25T22:34:32.679Z,25.30
2018-07-25T22:37:06.479Z,25.20
2018-07-25T22:39:40.328Z,25.10
2018-07-25T22:42:14.913Z,25.10
2018-07-25T22:44:49.500Z,24.90
2018-07-25T22:47:23.384Z,25.00
2018-07-25T22:49:57.200Z,24.90
2018-07-25T22:52:30.905Z,24.90
2018-07-25T22:55:05.464Z,24.70
2018-07-25T22:57:40.107Z,24.60
2018-07-25T23:00:14.607Z,24.50
2018-07-25T23:02:49.263Z,24.50
2018-07-25T23:05:23.053Z,24.50
2018-07-25T23:07:56.831Z,24.40
2018-07-25T23:10:31.255Z,24.40
2018-07-25T23:13:05.144Z,24.40
2018-07-25T23:15:38.943Z,24.40
2018-07-25T23:18:12.792Z,24.40
2018-07-25T23:20:46.557Z,24.30
2018-07-25T23:23:20.220Z,24.20
2018-07-25T23:25:54.011Z,24.00
2018-07-25T23:28:27.891Z,23.90
2018-07-25T23:31:02.524Z,23.90
2018-07-25T23:33:36.344Z,23.80
2018-07-25T23:36:10.162Z,23.90
2018-07-25T23:38:44.731Z,24.00
2018-07-25T23:41:18.590Z,23.90
2018-07-25T23:43:53.114Z,24.00
2018-07-25T23:46:26.904Z,23.90
2018-07-25T23:49:00.622Z,23.90
2018-07-25T23:51:34.403Z,23.80
2018-07-25T23:54:08.195Z,23.80
2018-07-25T23:56:42.125Z,23.70
2018-07-25T23:59:15.923Z,23.70
